Lloyd Harbor, New York
Current Conditions -  °F | °C
As of 2:53 AM on Friday 24 Oct 2014 (Local Time) from KFRG Reporting Station
Overcast Overcast  
Wind Chill: 52°   Ceiling: 3600
Heat Index: 52°   Visibility: 10mi
Dew Point: 45°   Wind: 13mph
Humidity: 77%   Direction: 340°NNW
Pressure: 29.74"   Gusts: NA
Location:  40.8966°N, 73.4362°W
Report Text: KFRG 240653Z AUTO 34011KT 10SM BKN036 OVC043 11/07 A2974 RMK AO2 SLP071 T01110072
Loading
Personal Weather Stations






























Interactive Weather Map
Tropical Storm Tracking
New forecast layout! Learn more

10-Day Weather Forecast

Advertisements
Track Severe Weather on mobile